• Join FlightAware (Why Join?)
  • Login
  • US Flag 
01:06AM EST


 

Airport Tracker/Info


-or-


 

Live Flight TrackerFlight Track Log ✈ SWA4254 ✈ 2013年12月28日 ✈ KSFO - KMDW

Flight Track Log - Related Links

Times and Time Zones

All times are in EST time to prevent confusion due to time zone crossing. See the SWA4254 flight status page for this flight to view local times or setup timezone preferences in your user account.

Time Position Orientation Groundspeed Altitude Reporting Facility
EST Latitude Longitude Course Direction KTS MPH feet Rate Location/Type
03:16PM 37.6667 -122.3167 67° East 195 224 2,900  Level Northern Cal TRACON
03:17PM 37.7000 -122.2667 50° Northeast 200 230 5,100 2,700 Climbing Northern Cal TRACON
03:18PM 37.7333 -122.1833 63° Northeast 264 304 8,100 2,580 Climbing Northern Cal TRACON
03:20PM 37.7819 -122.0161 70° East 312 359 12,700 2,640 Climbing Oakland Center
03:21PM 37.8681 -121.4917 67° East  Level Estimated
03:21PM 37.8164 -121.8969 70° East 358 412 15,900  Level Oakland Center
03:22PM 37.8592 -121.7553 69° East 362 417 19,200 2,700 Climbing Oakland Center
03:23PM 37.8908 -121.6439 70° East 370 426 21,500 2,160 Climbing Oakland Center
03:24PM 37.9281 -121.5158 70° East 387 445 23,700 2,340 Climbing Oakland Center
03:25PM 37.9739 -121.3558 70° East 403 464 26,400 2,400 Climbing Oakland Center
03:26PM 38.0117 -121.2242 70° East 402 463 28,700 2,100 Climbing Oakland Center
03:27PM 38.0442 -121.0886 73° East 404 465 30,800 2,040 Climbing Oakland Center
03:28PM 38.0789 -120.9581 71° East 395 455 32,900 1,620 Climbing Oakland Center
03:29PM 38.1122 -120.8286 72° East 389 448 34,200 1,020 Climbing Oakland Center
03:30PM 38.1453 -120.6939 73° East 399 459 35,100 900 Climbing Oakland Center
03:31PM 38.1881 -120.5258 72° East 417 480 36,100 720 Climbing Oakland Center
03:32PM 38.2231 -120.3850 72° East 419 482 36,600 420 Climbing Oakland Center
03:33PM 38.2583 -120.2411 73° East 427 491 37,000 180 Climbing Oakland Center
03:34PM 38.2964 -120.0942 72° East 437 503 37,000  Level Oakland Center
03:35PM 38.3339 -119.9461 72° East 441 507 37,000  Level Oakland Center
03:36PM 38.3694 -119.7958 73° East 443 510 37,000  Level Oakland Center
03:37PM 38.4053 -119.6464 73° East 442 509 37,000  Level Oakland Center
03:38PM 38.4447 -119.4875 72° East 435 501 37,000  Level Oakland Center
03:39PM 38.4789 -119.3375 74° East 441 507 37,000  Level Oakland Center
03:40PM 38.5153 -119.1928 72° East 433 498 37,000  Level Oakland Center
03:41PM 38.5572 -119.0161 73° East 436 502 37,000  Level Oakland Center
03:42PM 38.5919 -118.8678 73° East 438 504 37,000  Level Oakland Center
03:43PM 38.6261 -118.7192 74° East 438 504 37,000  Level Oakland Center
03:44PM 38.6611 -118.5714 73° East 437 503 37,000  Level Oakland Center
03:45PM 38.6950 -118.4219 74° East 439 505 37,000  Level Oakland Center
03:46PM 38.7303 -118.2700 73° East 445 512 37,000  Level Oakland Center
03:47PM 38.7658 -118.1167 73° East 452 520 37,000  Level Oakland Center
03:49PM 38.8067 -117.9336 74° East 449 517 37,000  Level Oakland Center
03:50PM 38.8417 -117.7819 73° East 447 514 37,000  Level Oakland Center
03:51PM 38.8753 -117.6275 74° East 447 514 37,000  Level Oakland Center
03:52PM 38.9089 -117.4781 74° East 443 510 37,000  Level Oakland Center
03:53PM 38.9411 -117.3258 75° East 442 509 37,000 300 Level Oakland Center
03:54PM 38.9947 -117.0789 74° East 441 507 37,900 660 Climbing Salt Lake Center
03:55PM 39.0264 -116.9269 75° East 441 507 38,800 480 Climbing Salt Lake Center
03:56PM 39.0661 -116.7442 74° East 441 507 39,000 60 Climbing Salt Lake Center
03:57PM 39.0961 -116.6039 75° East 448 516 39,000  Level Salt Lake Center
03:58PM 39.1333 -116.4294 75° East 453 521 39,000  Level Salt Lake Center
03:59PM 39.1642 -116.2800 75° East 454 522 39,000  Level Salt Lake Center
04:00PM 39.2003 -116.1056 75° East 453 521 39,000  Level Salt Lake Center
04:01PM 39.2319 -115.9519 75° East 461 531 39,000  Level Salt Lake Center
04:03PM 39.2692 -115.7731 75° East 463 533 39,000  Level Salt Lake Center
04:04PM 39.3008 -115.6175 75° East 468 539 39,000  Level Salt Lake Center
04:05PM 39.3325 -115.4642 75° East 465 535 39,000  Level Salt Lake Center
04:06PM 39.3678 -115.2858 76° East 460 529 39,000  Level Salt Lake Center
04:07PM 39.3981 -115.1322 76° East 461 531 39,000  Level Salt Lake Center
04:08PM 39.4333 -114.9542 76° East 460 529 39,000  Level Salt Lake Center
04:09PM 39.4656 -114.7969 75° East 470 541 39,000  Level Salt Lake Center
04:10PM 39.5003 -114.6164 76° East 464 534 39,000  Level Salt Lake Center
04:11PM 39.5300 -114.4625 76° East 462 532 39,000  Level Salt Lake Center
04:12PM 39.5606 -114.3006 76° East 460 529 39,000  Level Salt Lake Center
04:13PM 39.5911 -114.1369 76° East 466 536 39,000  Level Salt Lake Center
04:14PM 39.6222 -113.9703 76° East 473 544 39,000  Level Salt Lake Center
04:15PM 39.6539 -113.8022 76° East 480 552 39,000  Level Salt Lake Center
04:16PM 39.6908 -113.5997 77° East 481 554 39,000  Level Salt Lake Center
04:17PM 39.7217 -113.4297 77° East 483 556 39,000  Level Salt Lake Center
04:18PM 39.7525 -113.2675 76° East 482 555 39,000  Level Salt Lake Center
04:19PM 39.7817 -113.0994 77° East 479 551 39,000  Level Salt Lake Center
04:20PM 39.8106 -112.9294 77° East 481 554 39,000  Level Salt Lake Center
04:21PM 39.8467 -112.7314 77° East 474 545 39,000  Level Salt Lake Center
04:22PM 39.8753 -112.5639 77° East 475 547 39,000  Level Salt Lake Center
04:23PM 39.9047 -112.3981 77° East 473 544 39,000  Level Salt Lake Center
04:24PM 39.9328 -112.2325 77° East 473 544 39,000  Level Salt Lake Center
04:25PM 39.9603 -112.0667 78° East 471 542 39,000  Level Salt Lake Center
04:26PM 39.9878 -111.9019 78° East 469 540 39,000  Level Salt Lake Center
04:27PM 40.0211 -111.7036 78° East 470 541 39,000  Level Salt Lake Center
04:28PM 40.0489 -111.5394 77° East 468 539 39,000  Level Salt Lake Center
04:29PM 40.0753 -111.3728 78° East 471 542 39,000  Level Salt Lake Center
04:30PM 40.1031 -111.2069 78° East 470 541 39,000  Level Salt Lake Center
04:31PM 40.1292 -111.0406 78° East 471 542 39,000  Level Salt Lake Center
04:32PM 40.1561 -110.8653 79° East 478 550 39,000  Level Salt Lake Center
04:33PM 40.1847 -110.6722 79° East 484 557 39,000  Level Salt Lake Center
04:34PM 40.2106 -110.5100 78° East 479 551 39,000  Level Salt Lake Center
04:35PM 40.2406 -110.3200 78° East 477 549 39,000  Level Salt Lake Center
04:36PM 40.2650 -110.1567 79° East 477 549 39,000  Level Salt Lake Center
04:38PM 40.2939 -109.9650 79° East 479 551 39,000  Level Salt Lake Center
04:39PM 40.3186 -109.7989 79° East 484 557 39,000  Level Salt Lake Center
04:40PM 40.3422 -109.6322 79° East 485 558 39,000  Level Salt Lake Center
04:41PM 40.3708 -109.4361 79° East 488 562 39,000  Level Salt Lake Center
04:42PM 40.3950 -109.2692 79° East 486 559 39,000  Level Salt Lake Center
04:43PM 40.4219 -109.0739 80° East 487 560 39,000  Level Salt Lake Center
04:44PM 40.4461 -108.9044 79° East 491 565 39,000  Level Salt Lake Center
04:45PM 40.4708 -108.7247 80° East 492 566 39,000  Level Salt Lake Center
04:46PM 40.4978 -108.5272 80° East 494 568 39,000  Level Salt Lake Center
04:47PM 40.5211 -108.3589 80° East 493 567 39,000  Level Salt Lake Center
04:48PM 40.5475 -108.1606 80° East 495 570 39,000  Level Salt Lake Center
04:49PM 40.5694 -107.9883 80° East 498 573 39,000  Level Salt Lake Center
04:50PM 40.5961 -107.7861 80° East 505 581 39,000  Level Salt Lake Center
04:51PM 40.6178 -107.6119 81° East 505 581 39,000  Level Salt Lake Center
04:52PM 40.6431 -107.4136 80° East 496 571 39,000  Level Salt Lake Center
04:53PM 40.6669 -107.2156 81° East 495 570 39,000  Level Denver Center
04:54PM 40.6958 -106.9986 80° East 495 570 39,000  Level Denver Center
04:55PM 40.7167 -106.8194 81° East 494 568 39,000  Level Denver Center
04:56PM 40.7381 -106.6389 81° East 494 568 39,000  Level Denver Center
04:58PM 40.7606 -106.4447 81° East 496 571 39,000  Level Denver Center
04:59PM 40.7867 -106.2122 81° East 501 577 39,000  Level Denver Center
05:00PM 40.8089 -106.0231 81° East 506 582 39,000  Level Denver Center
05:01PM 40.8297 -105.8417 81° East 502 578 39,000  Level Denver Center
05:02PM 40.8489 -105.6606 82° East 499 574 39,000  Level Denver Center
05:03PM 40.8689 -105.4758 82° East 505 581 39,000  Level Denver Center
05:04PM 40.8919 -105.2536 82° East 507 583 39,000  Level Denver Center
05:05PM 40.9156 -105.0303 82° East 508 585 39,000  Level Denver Center
05:06PM 40.9344 -104.8492 82° East 501 577 39,000  Level Denver Center
05:07PM 40.9531 -104.6714 82° East 490 564 39,000  Level Denver Center
05:08PM 40.9708 -104.4903 83° East 495 570 39,000  Level Denver Center
05:09PM 40.9878 -104.3106 83° East 493 567 39,000  Level Denver Center
05:10PM 41.0072 -104.1133 82° East 488 562 39,000  Level Denver Center
05:11PM 41.0264 -103.9164 83° East 486 559 39,000  Level Denver Center
05:13PM 41.0419 -103.7467 83° East 487 560 39,000  Level Denver Center
05:14PM 41.0622 -103.5203 83° East 488 562 39,000  Level Denver Center
05:15PM 41.0772 -103.3489 83° East 491 565 39,000  Level Denver Center
05:16PM 41.0958 -103.1503 83° East 487 560 39,000  Level Denver Center
05:17PM 41.1114 -102.9617 84° East 489 563 39,000  Level Denver Center
05:18PM 41.1261 -102.7914 83° East 486 559 39,000  Level Denver Center
05:19PM 41.1428 -102.5900 84° East 491 565 39,000  Level Denver Center
05:20PM 41.1572 -102.4181 84° East 490 564 39,000  Level Denver Center
05:21PM 41.1739 -102.2167 84° East 493 567 39,000  Level Denver Center
05:22PM 41.1892 -102.0411 83° East 498 573 39,000  Level Denver Center
05:23PM 41.2039 -101.8375 84° East 497 572 39,000  Level Denver Center
05:24PM 41.2158 -101.6625 85° East 497 572 39,000  Level Denver Center
05:25PM 41.2300 -101.4867 84° East 499 574 39,000  Level Denver Center
05:26PM 41.2433 -101.2814 85° East 498 573 39,000  Level Denver Center
05:27PM 41.2556 -101.1064 85° East 496 571 39,000  Level Denver Center
05:28PM 41.2689 -100.9031 85° East 492 566 39,000  Level Denver Center
05:29PM 41.2828 -100.7028 85° East 485 558 39,000  Level Denver Center
05:30PM 41.2958 -100.5036 85° East 482 555 39,000  Level Denver Center
05:31PM 41.3067 -100.3336 85° East 481 554 39,000  Level Denver Center
05:33PM 41.3192 -100.1336 85° East 483 556 39,000  Level Denver Center
05:34PM 41.3325 -99.9056 85° East 484 557 39,000  Level Denver Center
05:35PM 41.3419 -99.7331 86° East 486 559 39,000  Level Denver Center
05:36PM 41.3514 -99.5675 86° East 488 562 39,000  Level Denver Center
05:37PM 41.3642 -99.3506 85° East 488 562 39,000  Level Denver Center
05:38PM 41.3725 -99.1675 86° East 490 564 39,000  Level Denver Center
05:39PM 41.3825 -98.9867 86° East 487 560 39,000  Level Denver Center
05:40PM 41.3875 -98.8661 87° East 484 557 39,000  Level Minneapolis Center
05:41PM 41.3969 -98.6894 86° East 481 554 39,000  Level Minneapolis Center
05:42PM 41.4081 -98.4761 86° East 481 554 39,000  Level Minneapolis Center
05:43PM 41.4150 -98.3058 87° East 480 552 39,000  Level Minneapolis Center
05:44PM 41.4222 -98.1281 87° East 480 552 39,000  Level Minneapolis Center
05:45PM 41.4300 -97.9442 87° East 482 555 39,000  Level Minneapolis Center
05:46PM 41.4375 -97.7656 87° East 482 555 39,000  Level Minneapolis Center
05:47PM 41.4447 -97.5861 87° East 485 558 39,000  Level Minneapolis Center
05:48PM 41.4519 -97.4064 87° East 486 559 39,000  Level Minneapolis Center
05:49PM 41.4586 -97.2269 87° East 486 559 39,000  Level Minneapolis Center
05:50PM 41.4642 -97.0461 88° East 486 559 39,000  Level Minneapolis Center
05:51PM 41.4700 -96.8675 87° East 485 558 39,000  Level Minneapolis Center
05:52PM 41.4756 -96.6911 88° East 479 551 39,000  Level Minneapolis Center
05:53PM 41.4825 -96.4806 87° East 473 544 39,000  Level Minneapolis Center
05:54PM 41.4853 -96.3097 89° East 473 544 39,000  Level Minneapolis Center
05:55PM 41.4906 -96.1369 88° East 468 539 39,000  Level Minneapolis Center
05:56PM 41.4953 -95.9653 88° East 462 532 39,000  Level Minneapolis Center
05:57PM 41.5000 -95.7964 88° East 456 525 39,000  Level Minneapolis Center
05:58PM 41.5036 -95.6092 88° East 461 531 39,000  Level Minneapolis Center
05:59PM 41.5069 -95.4361 88° East 464 534 39,000  Level Minneapolis Center
06:00PM 41.5097 -95.2628 89° East 467 537 39,000  Level Minneapolis Center
06:01PM 41.5133 -95.0903 88° East 466 536 39,000  Level Minneapolis Center
06:02PM 41.5164 -94.9175 89° East 466 536 39,000  Level Minneapolis Center
06:03PM 41.5189 -94.7450 89° East 465 535 39,000  Level Minneapolis Center
06:04PM 41.5197 -94.5725 90° East 464 534 39,000  Level Minneapolis Center
06:05PM 41.5203 -94.3994 90° East 465 535 39,000  Level Minneapolis Center
06:06PM 41.5231 -94.2186 89° East 465 535 39,000  Level Minneapolis Center
06:07PM 41.5242 -94.0469 89° East 464 534 39,000  Level Minneapolis Center
06:08PM 41.5253 -93.8775 89° East 462 532 39,000  Level Minneapolis Center
06:09PM 41.5269 -93.7058 89° East 463 533 39,000  Level Minneapolis Center
06:10PM 41.5283 -93.4967 89° East 470 541 39,000  Level Minneapolis Center
06:11PM 41.5297 -93.3194 89° East 476 548 39,000 -360 Level Minneapolis Center
06:12PM 41.5192 -93.1481 95° East 471 542 38,300 -840 Descending Minneapolis Center
06:13PM 41.5036 -92.9756 97° East 470 541 37,300 -660 Descending Minneapolis Center
06:14PM 41.4881 -92.8036 97° East 468 539 37,000 -600 Descending Minneapolis Center
06:15PM 41.4733 -92.6286 96° East 473 544 36,100 -900 Descending Minneapolis Center
06:16PM 41.4575 -92.4564 97° East 472 543 35,200 -900 Descending Minneapolis Center
06:17PM 41.4414 -92.2817 97° East 474 545 34,300 -960 Descending Minneapolis Center
06:19PM 41.4247 -92.1067 97° East 477 549 33,300 -900 Descending Minneapolis Center
06:19PM 41.4139 -91.9889 97° East 476 548 33,000 -540 Descending Chicago Center
06:20PM 41.3978 -91.8164 97° East 475 547 32,500 -780 Descending Chicago Center
06:21PM 41.3811 -91.6461 97° East 472 543 31,500 -780 Descending Chicago Center
06:22PM 41.3642 -91.4708 97° East 480 552 31,000 -300 Descending Chicago Center
06:23PM 41.3450 -91.2828 98° East 480 552 31,000 -480 Level Chicago Center
06:24PM 41.3258 -91.1072 98° East 480 552 30,100 -960 Descending Chicago Center
06:25PM 41.3075 -90.9272 98° East 487 560 29,100 -1,260 Descending Chicago Center
06:26PM 41.2892 -90.7494 98° East 486 559 27,600 -2,400 Descending Chicago Center
06:27PM 41.2700 -90.5756 98° East 478 550 24,300 -1,800 Descending Chicago Center
06:28PM 41.2519 -90.4036 98° East 470 541 24,000 -180 Descending Chicago Center
06:29PM 41.2292 -90.2003 98° East 464 534 24,000  Level Chicago Center
06:30PM 41.2100 -90.0275 98° East 469 540 24,000 -840 Level Chicago Center
06:31PM 41.1908 -89.8553 98° East 469 540 22,400 -2,220 Descending Chicago Center
06:32PM 41.1714 -89.6889 99° East 458 527 19,500 -2,640 Descending Chicago Center
06:33PM 41.1639 -89.5275 93° East 441 507 17,000 -2,400 Descending Chicago Center
06:34PM 41.1750 -89.3742 84° East 420 483 14,700 -1,620 Descending Chicago Center
06:35PM 41.1853 -89.2225 85° East 414 476 13,700 -1,080 Descending Chicago Center
06:36PM 41.1950 -89.0622 85° East 413 475 12,500 -1,140 Descending Chicago Center
06:38PM 41.2078 -88.9164 83° East 405 466 11,400 -1,020 Descending Chicago Center
06:39PM 41.2706 -88.7950 55° Northeast 402 463 10,500 -1,200 Descending Chicago Center
06:40PM 41.3472 -88.6706 51° Northeast 365 420 9,000 -1,320 Descending Chicago Center
06:41PM 41.4303 -88.6556 North 306 352 7,800 -1,320 Descending Chicago Center
06:42PM 41.4728 -88.5622 59° Northeast 309 356 6,300 -900 Descending Chicago Center
06:43PM 41.5011 -88.4569 70° East 303 349 6,000 -180 Descending Chicago Center
06:44PM 41.5142 -88.3461 81° East 304 350 6,000  Level Chicago Center
06:45PM 41.5289 -88.2356 80° East 302 348 6,000 -300 Level Chicago Center
06:46PM 41.5442 -88.1256 79° East 300 345 5,500 -480 Descending Chicago Center
06:47PM 41.5589 -88.0161 80° East 297 342 5,100 -600 Descending Chicago Center
06:48PM 41.5739 -87.9069 80° East 297 342 4,300 -900 Descending Chicago Center
06:49PM 41.5900 -87.7833 80° East 289 333 3,300 -660 Descending Chicago Center
06:50PM 41.6031 -87.6897 79° East 273 314 3,000 -180 Descending Chicago Center
06:51PM 41.6428 -87.6203 53° Northeast 254 292 3,000  Level Chicago Center
06:52PM 41.6847 -87.6022 18° North 208 239 3,000 -240 Level Chicago Center
06:53PM 41.7153 -87.6444 314° West 186 214 2,600 -420 Descending Chicago Center
06:54PM 41.7678 -87.6356 North 187 215 2,200 -300 Descending Chicago Center
06:55PM 41.8125 -87.6578 340° North 179 206 2,000 -300 Descending Chicago Center
06:56PM 41.8258 -87.7061 290° West 139 160 1,700 -480 Descending Chicago Center
06:57PM 41.8006 -87.7383 224° Southwest 147 169 1,100 -600 Descending Chicago Center